Kirov, Russia
Current Conditions -  °F | °C
As of 9:30 PM on Saturday 25 Oct 2014 (Local Time) from UWKS Reporting Station
Snow Showers Snow Showers  
Wind Chill: 10°   Ceiling: 3300
Heat Index: 21°   Visibility: 6mi
Dew Point: 14°   Wind: 11mph
Humidity: 74%   Direction: 340°NNW
Pressure: 30.48"   Gusts: NA
Location:  58.6°N, 49.66°E
Report Text: UWKS 251730Z 34005MPS 9999 -SHSN OVC033CB M06/M10 Q1032 NOSIGRMK QFE758 06820250
Loading
Personal Weather Stations






























Interactive Weather Map
Tropical Storm Tracking
New forecast layout! Learn more

10-Day Weather Forecast

Advertisements
Track Severe Weather on mobile